Time;durP1;ratioP1;P1;durP2;ratioP2;P2;SDS_P1;SDS_P2;PMS_P1;PMS_P2;Temp;Humidity;BMP_temperature;BMP_pressure;BME280_temperature;BME280_humidity;BME280_pressure;Samples;Min_cycle;Max_cycle;Signal;HPM_P1;HPM_P2
2021/08/07 00:00:46;;;;;;;10.63;4.70;;;16.40;99.90;;;;;;4993830;28;20395;-64
2021/08/07 00:03:14;;;;;;;8.00;4.85;;;16.40;99.90;;;;;;4993111;28;20394;-64
2021/08/07 00:05:40;;;;;;;9.05;4.88;;;16.40;99.90;;;;;;4994003;28;20448;-63
2021/08/07 00:08:06;;;;;;;8.98;5.10;;;16.40;99.90;;;;;;4992891;28;20382;-63
2021/08/07 00:10:31;;;;;;;13.10;5.70;;;16.50;99.90;;;;;;4994090;28;20399;-64
2021/08/07 00:12:57;;;;;;;10.07;5.32;;;16.50;99.90;;;;;;4993887;28;20413;-64
2021/08/07 00:15:23;;;;;;;8.35;5.13;;;16.50;99.90;;;;;;4993179;28;20471;-64
2021/08/07 00:17:48;;;;;;;9.10;4.93;;;16.50;99.90;;;;;;4993877;28;20932;-64
2021/08/07 00:20:14;;;;;;;13.90;5.20;;;16.40;99.90;;;;;;4992873;28;20449;-64
2021/08/07 00:22:40;;;;;;;9.75;4.90;;;16.30;99.90;;;;;;4993781;28;20379;-64
2021/08/07 00:25:06;;;;;;;8.70;5.00;;;16.20;99.90;;;;;;4992504;28;20393;-60
2021/08/07 00:27:32;;;;;;;9.75;5.40;;;16.30;99.90;;;;;;4993589;28;20445;-64
2021/08/07 00:29:57;;;;;;;10.63;5.67;;;16.30;99.90;;;;;;4992101;28;20459;-64
2021/08/07 00:32:23;;;;;;;9.43;5.43;;;16.30;99.90;;;;;;4992654;28;20574;-64
2021/08/07 00:34:48;;;;;;;13.10;5.20;;;16.30;99.90;;;;;;4993552;28;20870;-64
2021/08/07 00:37:14;;;;;;;10.27;5.27;;;16.20;99.90;;;;;;4992907;28;20386;-64
2021/08/07 00:39:40;;;;;;;8.63;5.40;;;16.20;99.90;;;;;;4993542;28;20850;-64
2021/08/07 00:42:05;;;;;;;8.90;4.88;;;16.20;99.90;;;;;;4993080;28;20719;-59
2021/08/07 00:44:31;;;;;;;10.13;5.20;;;16.10;99.90;;;;;;4975506;28;20391;-64
2021/08/07 00:46:57;;;;;;;11.57;5.70;;;16.10;99.90;;;;;;4975394;28;20414;-63
2021/08/07 00:49:22;;;;;;;9.38;5.53;;;16.10;99.90;;;;;;4992411;28;20390;-64
2021/08/07 00:51:49;;;;;;;11.30;5.40;;;16.10;99.90;;;;;;4993041;28;20418;-64
2021/08/07 00:54:15;;;;;;;9.90;5.78;;;16.20;99.90;;;;;;4990918;28;20387;-64
2021/08/07 00:56:41;;;;;;;9.80;4.93;;;16.20;99.90;;;;;;4993277;28;20383;-63
2021/08/07 00:59:07;;;;;;;8.57;5.30;;;16.30;99.90;;;;;;4992765;28;20866;-58
2021/08/07 01:01:39;;;;;;;8.00;5.20;;;16.40;99.90;;;;;;4992937;28;20529;-64
2021/08/07 01:04:09;;;;;;;10.40;4.93;;;16.40;99.90;;;;;;4993139;28;20405;-60
2021/08/07 01:06:41;;;;;;;7.72;4.32;;;16.40;99.90;;;;;;4992949;28;20386;-64
2021/08/07 01:09:18;;;;;;;8.90;4.67;;;16.40;99.90;;;;;;4992309;28;20754;-59
2021/08/07 01:12:00;;;;;;;13.25;5.70;;;16.30;99.90;;;;;;4993043;28;20418;-64
2021/08/07 01:14:36;;;;;;;8.63;4.30;;;16.20;99.90;;;;;;4991978;28;20444;-63
2021/08/07 01:17:04;;;;;;;10.05;4.70;;;16.20;99.90;;;;;;4992735;28;20774;-64
2021/08/07 01:19:38;;;;;;;11.52;5.03;;;16.20;99.90;;;;;;4991998;28;20431;-64
2021/08/07 01:22:05;;;;;;;12.57;5.07;;;16.20;99.90;;;;;;4975914;28;20423;-64
2021/08/07 01:24:36;;;;;;;10.88;5.10;;;16.20;99.90;;;;;;4991866;28;20896;-64
2021/08/07 01:27:15;;;;;;;9.23;5.20;;;16.20;99.90;;;;;;4992584;28;20390;-64
2021/08/07 01:29:41;;;;;;;9.75;4.63;;;16.30;99.90;;;;;;4992570;28;20386;-64
2021/08/07 01:32:07;;;;;;;8.45;4.90;;;18.00;99.90;;;;;;4992140;28;20765;-59
2021/08/07 01:34:34;;;;;;;12.48;5.68;;;16.50;99.90;;;;;;4991764;28;20473;-64
2021/08/07 01:37:01;;;;;;;11.10;5.33;;;16.60;99.90;;;;;;4975247;28;20862;-64
2021/08/07 01:39:26;;;;;;;10.20;5.30;;;16.60;99.90;;;;;;4991699;28;20394;-64
2021/08/07 01:41:52;;;;;;;8.47;4.73;;;16.70;99.90;;;;;;4992408;28;20398;-64
2021/08/07 01:44:17;;;;;;;8.63;4.93;;;16.80;99.90;;;;;;4991274;28;20868;-64
2021/08/07 01:46:58;;;;;;;9.02;4.70;;;16.80;99.90;;;;;;4992277;28;20402;-64
2021/08/07 01:49:41;;;;;;;12.25;5.30;;;16.90;99.90;;;;;;4991426;28;20394;-62
2021/08/07 01:52:28;;;;;;;10.50;5.10;;;16.90;99.90;;;;;;4992155;28;20424;-64
2021/08/07 01:55:00;;;;;;;8.60;4.90;;;16.90;99.90;;;;;;4992208;28;20441;-66
2021/08/07 01:57:31;;;;;;;10.63;5.35;;;16.90;99.90;;;;;;4991197;28;20379;-64
2021/08/07 01:59:57;;;;;;;9.00;4.53;;;16.90;99.90;;;;;;4992052;28;20373;-64
2021/08/07 02:02:24;;;;;;;9.48;5.22;;;16.90;99.90;;;;;;4991390;28;20382;-64
2021/08/07 02:04:50;;;;;;;11.05;5.50;;;16.90;99.90;;;;;;4991688;28;20390;-64
2021/08/07 02:07:16;;;;;;;9.03;4.43;;;16.90;99.90;;;;;;4991196;28;20470;-64
2021/08/07 02:09:43;;;;;;;10.45;5.20;;;17.00;99.90;;;;;;4991869;28;20445;-64
2021/08/07 02:12:09;;;;;;;8.37;5.10;;;16.90;99.90;;;;;;4991849;28;20510;-59
2021/08/07 02:14:37;;;;;;;10.68;5.40;;;17.00;99.90;;;;;;4991344;28;20469;-63
2021/08/07 02:17:04;;;;;;;11.60;5.60;;;17.00;99.90;;;;;;4991547;28;20494;-64
2021/08/07 02:19:30;;;;;;;7.95;4.50;;;17.00;99.90;;;;;;4991116;28;21119;-64
2021/08/07 02:21:57;;;;;;;8.20;4.70;;;16.90;99.90;;;;;;4991549;28;20497;-64
2021/08/07 02:24:25;;;;;;;9.95;4.40;;;16.90;99.90;;;;;;4990413;28;20404;-64
2021/08/07 02:26:51;;;;;;;8.05;4.50;;;17.00;99.90;;;;;;4991020;28;20390;-64
2021/08/07 02:29:18;;;;;;;10.30;5.10;;;16.90;99.90;;;;;;4973170;28;20386;-63
2021/08/07 02:31:45;;;;;;;9.30;5.20;;;16.80;99.90;;;;;;4991426;28;20410;-62
2021/08/07 02:34:12;;;;;;;7.57;4.90;;;16.70;99.90;;;;;;4991102;28;20386;-58
2021/08/07 02:36:39;;;;;;;8.70;4.55;;;16.60;99.90;;;;;;4990670;28;20490;-64
2021/08/07 02:39:05;;;;;;;8.93;5.18;;;16.50;99.90;;;;;;4990967;28;20389;-64
2021/08/07 02:41:31;;;;;;;13.15;4.93;;;16.50;99.90;;;;;;4990406;28;20564;-64
2021/08/07 02:43:57;;;;;;;10.65;4.80;;;16.40;99.90;;;;;;4990902;28;20386;-64
2021/08/07 02:46:24;;;;;;;9.07;4.60;;;16.50;99.90;;;;;;4990143;28;20390;-64
2021/08/07 02:48:51;;;;;;;8.32;4.65;;;16.50;99.90;;;;;;4990631;28;20465;-64
2021/08/07 02:51:18;;;;;;;9.02;4.90;;;16.40;99.90;;;;;;4990216;28;20385;-64
2021/08/07 02:53:44;;;;;;;10.35;4.68;;;16.50;99.90;;;;;;4990445;28;20437;-63
2021/08/07 02:56:11;;;;;;;10.43;4.20;;;16.60;99.90;;;;;;4989966;28;20379;-63
2021/08/07 02:58:37;;;;;;;7.45;4.00;;;16.70;99.90;;;;;;4990131;28;20382;-64
2021/08/07 03:01:03;;;;;;;10.63;4.23;;;16.60;99.90;;;;;;4990809;28;20386;-66
2021/08/07 03:03:28;;;;;;;8.55;4.00;;;16.60;99.90;;;;;;4990021;28;20850;-64
2021/08/07 03:05:54;;;;;;;7.57;4.00;;;16.60;99.90;;;;;;4990482;28;20382;-64
2021/08/07 03:08:20;;;;;;;8.17;3.80;;;16.60;99.90;;;;;;4972727;28;20422;-64
2021/08/07 03:10:45;;;;;;;6.85;3.90;;;16.60;99.90;;;;;;4990453;28;20399;-64
2021/08/07 03:13:11;;;;;;;6.60;3.70;;;16.50;99.90;;;;;;4990890;28;20410;-64
2021/08/07 03:15:37;;;;;;;8.27;3.90;;;16.50;99.90;;;;;;4989694;28;20419;-63
2021/08/07 03:18:03;;;;;;;6.50;3.50;;;16.50;99.90;;;;;;4989540;28;20402;-64
2021/08/07 03:20:31;;;;;;;6.80;3.20;;;16.50;99.90;;;;;;4989543;28;20949;-63
2021/08/07 03:23:02;;;;;;;8.88;3.55;;;16.50;99.90;;;;;;4990558;28;20445;-64
2021/08/07 03:25:28;;;;;;;8.93;3.50;;;16.50;99.90;;;;;;4989870;28;20452;-64
2021/08/07 03:27:54;;;;;;;9.23;3.50;;;16.40;99.90;;;;;;4990447;28;20382;-64
2021/08/07 03:30:20;;;;;;;8.75;3.70;;;16.40;99.90;;;;;;4989542;28;20390;-64
2021/08/07 03:32:46;;;;;;;11.20;3.90;;;16.40;99.90;;;;;;4990395;28;20402;-64
2021/08/07 03:35:12;;;;;;;8.93;3.60;;;16.40;99.90;;;;;;4990528;28;20444;-64
2021/08/07 03:37:37;;;;;;;7.50;3.60;;;16.50;99.90;;;;;;4989692;28;20583;-64
2021/08/07 03:40:04;;;;;;;8.07;3.70;;;16.50;99.90;;;;;;4972872;28;20485;-63
2021/08/07 03:42:29;;;;;;;6.82;3.58;;;16.50;99.90;;;;;;4989351;28;20399;-64
2021/08/07 03:44:55;;;;;;;7.38;3.60;;;16.50;99.90;;;;;;4990686;28;20851;-64
2021/08/07 03:47:22;;;;;;;7.15;3.90;;;16.40;99.90;;;;;;4989289;28;20410;-63
2021/08/07 03:49:48;;;;;;;7.00;3.88;;;16.40;99.90;;;;;;4990194;28;20426;-64
2021/08/07 03:52:13;;;;;;;6.97;3.70;;;16.40;99.90;;;;;;4972682;28;20414;-64
2021/08/07 03:54:39;;;;;;;7.53;3.40;;;16.40;99.90;;;;;;4972024;28;20817;-64
2021/08/07 03:57:05;;;;;;;8.98;4.47;;;16.30;99.90;;;;;;4972825;28;20732;-64
2021/08/07 03:59:33;;;;;;;7.38;3.85;;;16.40;99.90;;;;;;4989266;28;20389;-65
2021/08/07 04:01:58;;;;;;;9.95;3.80;;;16.40;99.90;;;;;;4972506;28;20414;-63
2021/08/07 04:04:24;;;;;;;8.70;3.67;;;16.30;99.90;;;;;;4989201;28;20589;-64
2021/08/07 04:06:50;;;;;;;8.77;3.90;;;16.30;99.90;;;;;;4989842;28;20854;-64
2021/08/07 04:09:16;;;;;;;8.18;3.90;;;16.20;99.90;;;;;;4989803;28;20379;-58
2021/08/07 04:11:41;;;;;;;10.53;4.10;;;15.60;99.90;;;;;;4989215;28;20382;-63
2021/08/07 04:14:07;;;;;;;7.78;4.10;;;16.20;99.90;;;;;;4989877;28;20751;-64
2021/08/07 04:16:34;;;;;;;6.53;3.77;;;16.20;99.90;;;;;;4971894;28;20403;-64
2021/08/07 04:19:00;;;;;;;9.55;4.43;;;16.20;99.90;;;;;;4990003;28;20399;-64
2021/08/07 04:21:25;;;;;;;10.10;4.00;;;16.10;99.90;;;;;;4971943;28;20414;-64
2021/08/07 04:23:51;;;;;;;7.03;3.60;;;16.10;99.90;;;;;;4989786;28;20416;-64
2021/08/07 04:26:17;;;;;;;9.90;3.80;;;16.20;99.90;;;;;;4989166;28;20838;-59
2021/08/07 04:28:42;;;;;;;7.50;3.00;;;16.20;99.90;;;;;;4991607;28;20829;-64
2021/08/07 04:31:08;;;;;;;8.20;3.17;;;16.30;99.90;;;;;;4993295;28;20378;-64
2021/08/07 04:33:34;;;;;;;7.20;3.10;;;16.30;99.90;;;;;;4992676;28;20410;-64
2021/08/07 04:36:03;;;;;;;7.30;3.27;;;16.40;99.90;;;;;;4993405;28;20402;-63
2021/08/07 04:38:30;;;;;;;9.30;3.30;;;16.40;99.90;;;;;;4992620;28;20398;-63
2021/08/07 04:40:55;;;;;;;7.97;3.30;;;16.30;99.90;;;;;;4993536;28;20390;-64
2021/08/07 04:43:21;;;;;;;8.63;3.60;;;16.30;99.90;;;;;;4992821;28;20444;-60
2021/08/07 04:45:47;;;;;;;9.70;3.90;;;16.30;99.90;;;;;;4985846;28;20383;-64
2021/08/07 04:48:12;;;;;;;8.20;3.65;;;16.40;99.90;;;;;;4983425;28;20459;-64
2021/08/07 04:50:38;;;;;;;7.20;3.60;;;16.50;99.90;;;;;;4982428;28;20399;-63
2021/08/07 04:53:06;;;;;;;9.23;3.63;;;16.40;99.90;;;;;;4974422;28;20410;-63
2021/08/07 04:55:33;;;;;;;7.50;4.10;;;16.50;99.90;;;;;;4981450;28;20956;-64
2021/08/07 04:57:59;;;;;;;9.43;4.05;;;16.60;99.90;;;;;;4981643;28;20385;-64
2021/08/07 05:00:24;;;;;;;7.72;4.00;;;16.90;99.90;;;;;;4982765;28;20448;-63
2021/08/07 05:02:50;;;;;;;7.47;4.00;;;17.30;99.90;;;;;;4983053;28;20463;-64
2021/08/07 05:05:16;;;;;;;7.43;3.80;;;17.40;99.90;;;;;;4981640;28;20388;-64
2021/08/07 05:07:43;;;;;;;8.37;4.20;;;17.80;99.90;;;;;;4981160;28;20385;-64
2021/08/07 05:10:10;;;;;;;8.75;3.30;;;18.10;99.90;;;;;;4982576;28;20854;-64
2021/08/07 05:12:36;;;;;;;6.53;3.37;;;18.20;99.90;;;;;;4983106;28;20412;-64
2021/08/07 05:15:02;;;;;;;7.35;3.15;;;18.00;99.90;;;;;;4983776;28;20944;-64
2021/08/07 05:17:28;;;;;;;9.40;3.50;;;18.00;99.90;;;;;;4982335;28;20408;-64
2021/08/07 05:19:54;;;;;;;10.43;3.85;;;17.90;99.90;;;;;;4982023;28;20746;-64
2021/08/07 05:22:21;;;;;;;9.48;3.92;;;17.90;99.90;;;;;;4983258;28;20398;-60
2021/08/07 05:24:48;;;;;;;6.00;3.58;;;17.80;99.90;;;;;;4982165;28;20388;-66
2021/08/07 05:27:13;;;;;;;6.30;3.60;;;17.80;99.90;;;;;;4982296;28;20383;-66
2021/08/07 05:29:40;;;;;;;7.20;4.00;;;17.80;99.90;;;;;;4983260;28;20746;-64
2021/08/07 05:32:06;;;;;;;7.55;3.60;;;17.80;99.90;;;;;;4981461;28;20530;-64
2021/08/07 05:34:31;;;;;;;7.07;4.00;;;17.80;99.90;;;;;;4982227;28;20893;-64
2021/08/07 05:36:57;;;;;;;8.77;4.40;;;17.80;99.90;;;;;;4983901;28;20821;-63
2021/08/07 05:39:23;;;;;;;7.43;3.80;;;17.80;99.90;;;;;;4980094;28;20467;-59
2021/08/07 05:41:49;;;;;;;10.05;3.70;;;17.90;99.90;;;;;;4982620;28;20406;-64
2021/08/07 05:44:15;;;;;;;9.05;3.83;;;18.00;99.90;;;;;;4982870;28;20550;-66
2021/08/07 05:46:40;;;;;;;8.77;3.80;;;18.10;99.90;;;;;;4979628;28;20974;-63
2021/08/07 05:49:06;;;;;;;7.10;3.80;;;18.30;99.90;;;;;;4977354;28;21195;-63
2021/08/07 05:51:34;;;;;;;10.10;4.00;;;18.70;99.90;;;;;;4976903;28;20506;-64
2021/08/07 05:54:01;;;;;;;8.27;3.63;;;19.30;99.90;;;;;;4978233;28;20399;-64
2021/08/07 05:56:26;;;;;;;6.83;3.10;;;19.40;99.90;;;;;;4981508;28;20903;-65
2021/08/07 05:58:52;;;;;;;7.78;3.40;;;21.50;99.90;;;;;;4973047;28;20396;-65
2021/08/07 06:01:18;;;;;;;8.27;3.30;;;22.40;99.90;;;;;;4980386;28;20868;-63
2021/08/07 06:03:43;;;;;;;8.13;3.35;;;23.30;99.90;;;;;;4981141;28;20922;-65
2021/08/07 06:06:09;;;;;;;9.02;3.40;;;23.80;99.90;;;;;;4981892;28;20404;-65
2021/08/07 06:08:36;;;;;;;6.88;3.13;;;23.20;99.90;;;;;;4978357;28;20525;-65
2021/08/07 06:11:02;;;;;;;6.80;3.50;;;22.60;99.90;;;;;;4979341;28;20392;-65
2021/08/07 06:13:28;;;;;;;8.70;3.60;;;21.80;99.90;;;;;;4971146;28;20423;-64
2021/08/07 06:15:55;;;;;;;7.60;3.27;;;21.40;99.90;;;;;;4979641;28;20895;-65
2021/08/07 06:18:20;;;;;;;8.88;3.83;;;21.40;99.90;;;;;;4978071;28;20406;-64
2021/08/07 06:20:46;;;;;;;6.40;2.88;;;21.30;99.90;;;;;;4987197;28;20394;-64
2021/08/07 06:23:12;;;;;;;8.97;3.50;;;21.40;99.90;;;;;;4987530;28;20945;-61
2021/08/07 06:25:38;;;;;;;6.97;3.00;;;21.80;99.90;;;;;;4983375;28;20387;-65
2021/08/07 06:28:04;;;;;;;8.20;2.90;;;21.60;99.90;;;;;;4990606;28;20514;-63
2021/08/07 06:30:30;;;;;;;5.90;2.75;;;21.40;99.90;;;;;;4981596;28;20424;-65
2021/08/07 06:32:56;;;;;;;5.60;2.53;;;21.10;99.90;;;;;;4986994;28;20513;-64
2021/08/07 06:35:22;;;;;;;7.90;2.80;;;21.10;99.90;;;;;;4974693;28;20837;-65
2021/08/07 06:37:48;;;;;;;7.35;2.92;;;21.30;99.90;;;;;;4983115;28;20453;-63
2021/08/07 06:40:15;;;;;;;7.55;2.50;;;21.40;99.90;;;;;;4981931;28;20478;-63
2021/08/07 06:42:41;;;;;;;6.32;3.05;;;21.90;99.90;;;;;;4980313;28;20477;-64
2021/08/07 06:45:08;;;;;;;7.80;2.70;;;22.30;99.90;;;;;;4979628;28;21052;-65
2021/08/07 06:47:35;;;;;;;6.90;2.77;;;23.10;99.90;;;;;;4978461;28;20823;-65
2021/08/07 06:50:01;;;;;;;8.10;2.40;;;24.60;99.90;;;;;;4976877;28;20911;-65
2021/08/07 06:52:26;;;;;;;6.20;2.10;;;25.20;99.90;;;;;;4978918;28;20443;-60
2021/08/07 06:54:52;;;;;;;6.25;2.50;;;25.80;99.90;;;;;;4980090;28;20883;-65
2021/08/07 06:57:19;;;;;;;7.35;2.20;;;26.80;99.90;;;;;;4978140;28;20826;-65
2021/08/07 06:59:45;;;;;;;6.20;2.40;;;26.90;99.90;;;;;;4975856;28;20390;-65
2021/08/07 07:02:11;;;;;;;5.82;2.50;;;26.50;99.90;;;;;;4980419;28;20398;-63
2021/08/07 07:04:37;;;;;;;6.45;2.00;;;26.50;99.90;;;;;;4978089;28;20416;-65
2021/08/07 07:07:04;;;;;;;6.65;2.80;;;27.20;99.90;;;;;;4979347;28;20753;-65
2021/08/07 07:09:29;;;;;;;5.50;1.85;;;28.10;99.90;;;;;;4979447;28;20430;-60
2021/08/07 07:11:55;;;;;;;5.20;1.70;;;28.80;97.00;;;;;;4978821;28;20815;-65
2021/08/07 07:14:21;;;;;;;6.97;4.10;;;29.30;94.70;;;;;;4981285;28;20446;-66
2021/08/07 07:16:47;;;;;;;6.20;2.00;;;29.50;93.50;;;;;;4979309;28;21015;-65
2021/08/07 07:19:14;;;;;;;5.60;2.40;;;29.00;95.40;;;;;;4974100;28;20437;-66
2021/08/07 07:21:41;;;;;;;6.50;1.90;;;29.80;93.60;;;;;;4974680;28;20390;-66
2021/08/07 07:24:06;;;;;;;6.93;1.88;;;31.10;91.20;;;;;;4978692;28;20392;-65
2021/08/07 07:26:32;;;;;;;5.47;2.00;;;30.60;89.00;;;;;;4979900;28;20932;-65
2021/08/07 07:28:58;;;;;;;7.43;1.70;;;29.30;91.30;;;;;;4980532;28;20392;-65
2021/08/07 07:31:24;;;;;;;6.00;1.80;;;28.10;92.00;;;;;;4978757;28;20459;-64
2021/08/07 07:33:50;;;;;;;7.63;2.30;;;26.80;93.90;;;;;;4979568;28;20489;-65
2021/08/07 07:36:16;;;;;;;6.60;2.00;;;25.70;96.40;;;;;;4980083;28;20392;-68
2021/08/07 07:38:42;;;;;;;7.50;2.30;;;25.00;99.00;;;;;;4977270;28;20752;-65
2021/08/07 07:41:09;;;;;;;7.38;1.92;;;24.50;99.90;;;;;;4978865;28;20415;-64
2021/08/07 07:43:34;;;;;;;6.68;2.08;;;24.30;99.90;;;;;;4979519;28;20873;-65
2021/08/07 07:46:00;;;;;;;7.60;2.53;;;23.90;99.90;;;;;;4980173;28;20403;-65
2021/08/07 07:48:26;;;;;;;6.83;2.30;;;23.40;99.90;;;;;;4978078;28;20424;-66
2021/08/07 07:50:52;;;;;;;6.25;2.90;;;23.20;99.90;;;;;;4957557;28;20412;-65
2021/08/07 07:53:18;;;;;;;5.72;2.20;;;23.00;99.90;;;;;;4972254;28;20416;-65
2021/08/07 07:55:44;;;;;;;6.60;2.60;;;23.00;99.90;;;;;;4969845;28;20423;-65
2021/08/07 07:58:09;;;;;;;7.50;2.30;;;22.80;99.90;;;;;;4970298;28;20475;-67
2021/08/07 08:00:35;;;;;;;5.45;2.10;;;22.90;99.90;;;;;;4980670;28;20509;-65
2021/08/07 08:03:01;;;;;;;6.50;1.90;;;23.20;99.90;;;;;;4991448;28;20533;-66
2021/08/07 08:05:27;;;;;;;5.60;2.50;;;24.40;99.90;;;;;;4994121;28;20822;-66
2021/08/07 08:07:52;;;;;;;5.10;2.20;;;26.20;99.90;;;;;;4992774;28;20378;-64
2021/08/07 08:10:18;;;;;;;7.80;2.60;;;27.40;99.20;;;;;;4993704;28;20382;-65
2021/08/07 08:12:44;;;;;;;6.97;2.40;;;28.40;98.00;;;;;;4992970;28;20410;-65
2021/08/07 08:15:12;;;;;;;6.07;2.20;;;29.10;95.90;;;;;;4993335;28;20426;-64
2021/08/07 08:17:38;;;;;;;10.80;3.28;;;29.30;92.90;;;;;;4992620;28;20390;-65
2021/08/07 08:20:05;;;;;;;6.93;2.90;;;29.90;92.60;;;;;;4993354;28;20481;-65
2021/08/07 08:22:31;;;;;;;6.55;1.70;;;29.50;91.40;;;;;;4992719;28;20391;-62
2021/08/07 08:24:57;;;;;;;5.00;1.30;;;29.60;90.80;;;;;;4974662;28;20396;-61
2021/08/07 08:27:23;;;;;;;6.88;1.60;;;29.00;90.60;;;;;;4973726;28;20777;-62
2021/08/07 08:29:49;;;;;;;7.30;1.70;;;28.20;91.30;;;;;;4972916;28;21100;-62
2021/08/07 08:32:16;;;;;;;6.70;2.00;;;27.60;91.80;;;;;;4973940;28;20431;-63
2021/08/07 08:34:41;;;;;;;7.10;5.20;;;26.80;93.10;;;;;;4972912;28;20395;-62
2021/08/07 08:37:08;;;;;;;5.70;2.63;;;26.40;94.40;;;;;;4973853;28;20400;-63
2021/08/07 08:39:34;;;;;;;7.10;2.63;;;26.30;96.20;;;;;;4972761;28;20467;-61
2021/08/07 08:42:00;;;;;;;6.13;2.58;;;26.30;95.10;;;;;;4973472;28;20520;-63
2021/08/07 08:44:26;;;;;;;5.28;2.30;;;26.40;94.00;;;;;;4973668;28;20391;-63
2021/08/07 08:46:53;;;;;;;6.43;2.90;;;26.40;94.70;;;;;;4972690;28;20477;-63
2021/08/07 08:49:19;;;;;;;8.13;2.30;;;25.50;95.30;;;;;;4973277;28;20438;-63
2021/08/07 08:51:46;;;;;;;6.93;2.67;;;26.80;95.20;;;;;;4972483;28;20740;-63
2021/08/07 08:54:15;;;;;;;5.78;2.70;;;26.90;95.00;;;;;;4973351;28;20764;-63
2021/08/07 08:56:40;;;;;;;6.07;2.30;;;26.60;94.30;;;;;;4988211;28;20444;-62
2021/08/07 08:59:09;;;;;;;5.82;2.20;;;26.50;95.20;;;;;;4985999;28;20479;-62
2021/08/07 09:01:36;;;;;;;6.15;2.42;;;26.80;94.60;;;;;;4987532;28;20473;-61
2021/08/07 09:04:04;;;;;;;7.97;2.20;;;27.20;93.80;;;;;;4988661;28;20485;-63
2021/08/07 09:06:33;;;;;;;7.28;2.40;;;27.20;94.90;;;;;;4974295;28;20404;-63
2021/08/07 09:09:09;;;;;;;7.07;2.60;;;26.70;94.80;;;;;;4983401;28;20397;-63
2021/08/07 09:11:39;;;;;;;6.40;2.67;;;26.50;94.50;;;;;;4983649;28;20431;-61
2021/08/07 09:14:15;;;;;;;8.05;3.10;;;26.10;95.70;;;;;;4980332;28;20388;-63
2021/08/07 09:16:59;;;;;;;6.70;2.70;;;25.80;96.30;;;;;;4981019;28;20412;-64
2021/08/07 09:19:44;;;;;;;6.60;3.10;;;25.70;96.30;;;;;;4983836;28;20414;-64
2021/08/07 09:22:19;;;;;;;6.30;2.80;;;25.60;95.80;;;;;;4981324;28;20395;-63
2021/08/07 09:25:02;;;;;;;6.20;1.90;;;25.40;95.90;;;;;;4980200;28;20420;-63
2021/08/07 09:27:32;;;;;;;5.65;1.60;;;25.40;96.70;;;;;;4980657;28;20398;-63
2021/08/07 09:29:59;;;;;;;5.80;1.50;;;25.40;97.00;;;;;;4983417;28;20404;-63
2021/08/07 09:32:25;;;;;;;6.40;1.70;;;25.80;97.50;;;;;;4982035;28;20441;-64
2021/08/07 09:35:08;;;;;;;5.70;2.03;;;26.50;95.80;;;;;;4981887;28;20426;-63
2021/08/07 09:37:35;;;;;;;5.68;1.80;;;26.70;94.90;;;;;;4980160;28;20426;-62
2021/08/07 09:40:02;;;;;;;7.23;2.50;;;26.70;94.80;;;;;;4981851;28;20386;-63
2021/08/07 09:42:28;;;;;;;6.13;2.08;;;26.40;96.40;;;;;;4978700;28;20404;-63
2021/08/07 09:45:11;;;;;;;7.75;2.90;;;26.40;96.40;;;;;;4977841;28;20386;-64
2021/08/07 09:47:55;;;;;;;6.15;1.90;;;26.30;96.50;;;;;;4979454;28;20416;-62
2021/08/07 09:50:23;;;;;;;7.00;1.80;;;26.00;95.90;;;;;;4980526;28;20410;-63
2021/08/07 09:52:49;;;;;;;7.67;1.80;;;25.90;96.80;;;;;;4979986;28;20474;-63
2021/08/07 09:55:15;;;;;;;10.90;2.00;;;25.60;95.90;;;;;;4981496;28;20386;-63
2021/08/07 09:57:40;;;;;;;5.55;1.80;;;25.50;96.50;;;;;;4981912;28;20902;-64
2021/08/07 10:00:07;;;;;;;5.20;1.50;;;24.80;98.60;;;;;;4983118;28;20421;-63
2021/08/07 10:02:36;;;;;;;5.68;1.70;;;24.10;99.90;;;;;;4977784;28;20890;-64
2021/08/07 10:05:08;;;;;;;5.80;2.35;;;23.80;99.90;;;;;;4980399;28;20511;-64
2021/08/07 10:07:34;;;;;;;6.63;2.13;;;23.70;99.90;;;;;;4979403;28;20859;-64
2021/08/07 10:10:00;;;;;;;6.60;2.80;;;23.60;99.90;;;;;;4977970;28;20483;-63
2021/08/07 10:12:26;;;;;;;5.57;1.90;;;23.50;99.90;;;;;;4986748;28;20461;-63
2021/08/07 10:14:52;;;;;;;6.80;1.92;;;23.40;99.90;;;;;;4990998;28;20820;-64
2021/08/07 10:17:19;;;;;;;7.68;2.00;;;23.20;99.90;;;;;;4991190;28;20719;-64
2021/08/07 10:19:47;;;;;;;8.32;2.17;;;23.20;99.90;;;;;;4988696;28;20442;-62
2021/08/07 10:22:14;;;;;;;6.82;2.10;;;23.10;99.90;;;;;;4969458;28;20864;-64
2021/08/07 10:24:43;;;;;;;5.97;2.35;;;22.80;99.90;;;;;;4970706;28;20455;-63
2021/08/07 10:27:09;;;;;;;7.80;2.80;;;22.50;99.90;;;;;;4970697;28;20879;-63
2021/08/07 10:29:39;;;;;;;6.80;2.53;;;22.20;99.90;;;;;;4979291;28;20410;-63
2021/08/07 10:32:06;;;;;;;8.03;3.10;;;21.80;99.90;;;;;;4984992;28;20836;-64
2021/08/07 10:34:39;;;;;;;6.67;2.60;;;21.60;99.90;;;;;;4978888;28;20425;-64
2021/08/07 10:37:05;;;;;;;7.35;2.92;;;21.40;99.90;;;;;;4980973;28;20445;-64
2021/08/07 10:39:32;;;;;;;7.32;2.50;;;21.40;99.90;;;;;;4975560;28;20435;-63
2021/08/07 10:42:03;;;;;;;7.05;2.60;;;21.50;99.90;;;;;;4986307;28;20771;-62
2021/08/07 10:44:31;;;;;;;7.00;2.70;;;21.50;99.90;;;;;;4980831;28;20720;-63
2021/08/07 10:46:57;;;;;;;7.80;2.90;;;21.70;99.90;;;;;;4982974;28;21080;-62
2021/08/07 10:49:38;;;;;;;6.65;2.63;;;21.60;99.90;;;;;;4976964;28;20410;-62
2021/08/07 10:52:22;;;;;;;7.07;2.75;;;21.60;99.90;;;;;;4982445;28;20458;-63
2021/08/07 10:54:49;;;;;;;8.30;2.85;;;21.30;99.90;;;;;;4986198;28;20483;-63
2021/08/07 10:57:37;;;;;;;5.55;2.70;;;21.10;99.90;;;;;;4983335;28;20493;-63
2021/08/07 11:00:29;;;;;;;9.18;2.97;;;21.00;99.90;;;;;;4980581;28;20424;-63
2021/08/07 11:03:33;;;;;;;8.63;3.33;;;20.70;99.90;;;;;;4982165;28;20580;-64
2021/08/07 11:05:59;;;;;;;8.07;3.00;;;20.50;99.90;;;;;;4974785;28;20541;-65
2021/08/07 11:08:24;;;;;;;9.70;2.90;;;20.40;99.90;;;;;;4988639;28;20932;-65
2021/08/07 11:10:50;;;;;;;7.67;2.40;;;20.30;99.90;;;;;;4984689;28;20418;-65
2021/08/07 11:13:24;;;;;;;9.18;3.50;;;20.20;99.90;;;;;;4982569;28;20481;-65
2021/08/07 11:16:19;;;;;;;7.38;2.58;;;20.00;99.90;;;;;;4982454;28;20513;-64
2021/08/07 11:18:46;;;;;;;8.18;2.80;;;19.90;99.90;;;;;;4979028;28;20872;-64
2021/08/07 11:21:50;;;;;;;9.00;3.00;;;21.10;99.90;;;;;;4977955;28;20440;-64
2021/08/07 11:24:44;;;;;;;7.07;3.30;;;19.80;99.90;;;;;;4973306;28;20395;-63
2021/08/07 11:27:10;;;;;;;9.68;3.65;;;19.80;99.90;;;;;;4986358;28;20398;-65
2021/08/07 11:30:13;;;;;;;10.68;4.40;;;19.80;99.90;;;;;;4987163;28;20412;-65
2021/08/07 11:32:39;;;;;;;13.15;4.15;;;19.80;99.90;;;;;;4985478;28;20434;-63
2021/08/07 11:35:05;;;;;;;12.00;3.85;;;19.70;99.90;;;;;;4983361;28;20501;-66
2021/08/07 11:37:30;;;;;;;10.15;3.80;;;19.70;99.90;;;;;;4978366;28;20638;-65
2021/08/07 11:40:08;;;;;;;11.93;3.42;;;19.70;99.90;;;;;;4981565;28;21043;-65
2021/08/07 11:42:46;;;;;;;9.90;4.55;;;19.70;99.90;;;;;;4980888;28;20408;-66
2021/08/07 11:45:17;;;;;;;19.38;7.22;;;19.70;99.90;;;;;;4983428;28;20414;-65
2021/08/07 11:47:48;;;;;;;14.02;5.13;;;19.70;99.90;;;;;;4970372;28;20411;-63
2021/08/07 11:50:14;;;;;;;14.77;6.07;;;19.80;99.90;;;;;;4979506;28;20410;-64
2021/08/07 11:52:39;;;;;;;13.02;4.53;;;19.80;99.90;;;;;;4988008;28;20770;-65
2021/08/07 11:55:06;;;;;;;11.40;3.80;;;19.90;99.90;;;;;;4981192;28;20417;-66
2021/08/07 11:57:31;;;;;;;9.45;3.50;;;19.90;99.90;;;;;;4988426;28;21166;-66
2021/08/07 12:00:27;;;;;;;11.30;3.67;;;19.70;99.90;;;;;;4980514;28;20433;-65
2021/08/07 12:02:57;;;;;;;7.80;4.10;;;19.40;99.90;;;;;;4986407;28;20402;-67
2021/08/07 12:05:23;;;;;;;8.02;3.60;;;19.50;99.90;;;;;;4975969;28;20406;-66
2021/08/07 12:08:03;;;;;;;7.40;3.50;;;19.50;99.90;;;;;;4987821;28;20765;-67
2021/08/07 12:10:29;;;;;;;8.98;3.50;;;19.30;99.90;;;;;;4988258;28;20399;-66
2021/08/07 12:12:55;;;;;;;8.45;3.53;;;19.30;99.90;;;;;;4988604;28;20497;-65
2021/08/07 12:15:21;;;;;;;7.63;3.20;;;19.30;99.90;;;;;;4988501;28;20482;-63
2021/08/07 12:17:48;;;;;;;10.10;4.00;;;19.40;99.90;;;;;;4985440;28;20502;-61
2021/08/07 12:20:14;;;;;;;7.40;3.00;;;19.40;99.90;;;;;;4982323;28;20997;-66
2021/08/07 12:22:54;;;;;;;9.10;3.50;;;19.40;99.90;;;;;;4985480;28;20505;-66
2021/08/07 12:25:20;;;;;;;11.45;3.40;;;19.50;99.90;;;;;;4983907;28;20453;-66
2021/08/07 12:28:05;;;;;;;10.18;3.38;;;19.50;99.90;;;;;;4986583;28;20414;-63
2021/08/07 12:30:31;;;;;;;7.82;3.50;;;19.60;99.90;;;;;;4979932;28;21176;-64
2021/08/07 12:33:17;;;;;;;11.25;3.83;;;19.60;99.90;;;;;;4983377;28;20440;-65
2021/08/07 12:35:43;;;;;;;8.43;3.47;;;19.40;99.90;;;;;;4985800;28;20859;-64
2021/08/07 12:38:20;;;;;;;7.72;4.03;;;19.30;99.90;;;;;;4981304;28;20466;-66
2021/08/07 12:40:49;;;;;;;7.72;3.90;;;19.30;99.90;;;;;;4982690;28;20413;-63
2021/08/07 12:43:14;;;;;;;7.93;3.60;;;19.30;99.90;;;;;;4985744;28;20423;-65
2021/08/07 12:45:40;;;;;;;8.00;3.97;;;19.10;99.90;;;;;;4981679;28;20408;-66
2021/08/07 12:48:07;;;;;;;10.05;3.60;;;19.10;99.90;;;;;;4985034;28;20505;-65
2021/08/07 12:50:32;;;;;;;8.65;3.72;;;19.10;99.90;;;;;;4988813;28;20410;-66